createdAt,value
2022-10-13T00:03:26.897Z,101612.50
2022-10-13T00:08:30.301Z,101609.72
2022-10-13T00:13:32.655Z,101608.47
2022-10-13T00:18:34.947Z,101610.50
2022-10-13T00:23:37.713Z,101609.09
2022-10-13T00:28:40.874Z,101614.78
2022-10-13T00:33:43.391Z,101606.63
2022-10-13T00:38:45.912Z,101603.81
2022-10-13T00:43:49.587Z,101601.09
2022-10-13T00:48:52.493Z,101592.81
2022-10-13T00:53:56.574Z,101594.19
2022-10-13T00:59:00.833Z,101583.19
2022-10-13T01:04:03.442Z,101582.88
2022-10-13T01:09:05.751Z,101585.06
2022-10-13T01:14:19.249Z,101582.13
2022-10-13T01:19:21.567Z,101582.38
2022-10-13T01:24:38.353Z,101574.88
2022-10-13T01:30:06.219Z,101580.19
2022-10-13T01:35:13.301Z,101564.97
2022-10-13T01:40:26.065Z,101557.34
2022-10-13T01:45:37.621Z,101574.75
2022-10-13T01:50:40.200Z,101568.50
2022-10-13T01:56:00.154Z,101570.38
2022-10-13T02:01:14.243Z,101569.81
2022-10-13T02:06:23.815Z,101564.81
2022-10-13T02:11:27.838Z,101549.34
2022-10-13T02:16:32.673Z,101545.94
2022-10-13T02:21:35.387Z,101538.41
2022-10-13T02:26:38.409Z,101552.59
2022-10-13T02:31:47.640Z,101545.19
2022-10-13T02:36:49.996Z,101548.16
2022-10-13T02:41:52.256Z,101551.47
2022-10-13T02:46:54.579Z,101539.72
2022-10-13T02:51:56.910Z,101537.91
2022-10-13T02:56:59.315Z,101525.19
2022-10-13T03:02:01.649Z,101522.56
2022-10-13T03:07:04.177Z,101529.03
2022-10-13T03:12:06.842Z,101522.00
2022-10-13T03:17:13.401Z,101513.06
2022-10-13T03:22:15.947Z,101519.28
2022-10-13T03:27:18.186Z,101521.53
2022-10-13T03:32:20.730Z,101507.00
2022-10-13T03:37:23.511Z,101515.13
2022-10-13T03:42:25.802Z,101516.38
2022-10-13T03:47:28.649Z,101519.50
2022-10-13T03:52:31.026Z,101523.88
2022-10-13T03:57:33.302Z,101518.28
2022-10-13T04:02:35.598Z,101515.41
2022-10-13T04:07:37.952Z,101516.66
2022-10-13T04:12:49.978Z,101520.19
2022-10-13T04:17:52.251Z,101513.38
2022-10-13T04:22:54.498Z,101507.31
2022-10-13T04:27:56.782Z,101502.94
2022-10-13T04:32:59.082Z,101511.25
2022-10-13T04:38:01.485Z,101496.09
2022-10-13T04:43:03.811Z,101513.94
2022-10-13T04:48:06.249Z,101500.84
2022-10-13T04:53:08.473Z,101502.72
2022-10-13T04:58:10.793Z,101503.13
2022-10-13T05:03:13.533Z,101501.09
2022-10-13T05:08:15.920Z,101499.41
2022-10-13T05:13:18.230Z,101494.63
2022-10-13T05:18:21.194Z,101487.78
2022-10-13T05:23:23.487Z,101500.22
2022-10-13T05:28:25.777Z,101482.97
2022-10-13T05:33:28.094Z,101493.34
2022-10-13T05:38:30.362Z,101488.75
2022-10-13T05:43:33.479Z,101490.84
2022-10-13T05:48:36.934Z,101496.22
2022-10-13T05:53:45.500Z,101491.22
2022-10-13T05:58:54.113Z,101484.53
2022-10-13T06:03:59.683Z,101491.94
2022-10-13T06:09:02.270Z,101489.00
2022-10-13T06:14:04.604Z,101485.16
2022-10-13T06:19:06.973Z,101488.28
2022-10-13T06:24:09.357Z,101477.47
2022-10-13T06:29:11.768Z,101482.47
2022-10-13T06:34:14.168Z,101479.00
2022-10-13T06:39:19.710Z,101473.09
2022-10-13T06:44:21.988Z,101467.38
2022-10-13T06:49:24.980Z,101458.19
2022-10-13T06:54:27.423Z,101461.88
2022-10-13T06:59:30.237Z,101451.91
2022-10-13T07:04:32.534Z,101445.00
2022-10-13T07:09:34.828Z,101432.72
2022-10-13T07:14:39.249Z,101434.44
2022-10-13T07:19:48.438Z,101427.06
2022-10-13T07:24:50.804Z,101424.66
2022-10-13T07:29:55.073Z,101418.13
2022-10-13T07:34:57.441Z,101416.00
2022-10-13T07:40:00.562Z,101430.88
2022-10-13T07:45:04.958Z,101425.03
2022-10-13T07:50:07.783Z,101431.31
2022-10-13T07:55:10.154Z,101419.75
2022-10-13T08:00:12.999Z,101415.88
2022-10-13T08:05:15.339Z,101411.94
2022-10-13T08:10:17.840Z,101402.19
2022-10-13T08:15:20.218Z,101402.34
2022-10-13T08:20:22.515Z,101390.88
2022-10-13T08:25:24.775Z,101372.50
2022-10-13T08:30:27.207Z,101371.28
2022-10-13T08:35:34.078Z,101361.69
2022-10-13T08:40:38.781Z,101367.53
2022-10-13T08:45:42.271Z,101368.41
2022-10-13T08:50:48.754Z,101355.91
2022-10-13T08:55:59.470Z,101358.09
2022-10-13T09:01:19.522Z,101354.09
2022-10-13T09:06:28.512Z,101344.38
2022-10-13T09:11:34.149Z,101341.22
2022-10-13T09:16:38.461Z,101344.66
2022-10-13T09:21:44.739Z,101340.25
2022-10-13T09:26:48.684Z,101347.16
2022-10-13T09:31:51.829Z,101348.53
2022-10-13T09:37:05.379Z,101351.09
2022-10-13T09:42:27.941Z,101354.66
2022-10-13T09:47:33.368Z,101328.94
2022-10-13T09:52:35.738Z,101339.94
2022-10-13T09:57:45.950Z,101337.25
2022-10-13T10:03:07.456Z,101334.78
2022-10-13T10:09:03.657Z,101338.13
2022-10-13T10:14:20.315Z,101330.47
2022-10-13T10:19:54.543Z,101325.56
2022-10-13T10:25:13.646Z,101321.13
2022-10-13T10:30:17.837Z,101320.88
2022-10-13T10:35:30.763Z,101318.91
2022-10-13T10:41:04.834Z,101314.78
2022-10-13T10:46:16.238Z,101313.94
2022-10-13T10:51:19.521Z,101291.75
2022-10-13T10:56:40.636Z,101294.34
2022-10-13T11:02:04.268Z,101290.34
2022-10-13T11:07:26.422Z,101287.50
2022-10-13T11:12:53.684Z,101271.19
2022-10-13T11:17:55.976Z,101261.16
2022-10-13T11:22:58.183Z,101250.78
2022-10-13T11:28:00.676Z,101237.16
2022-10-13T11:33:09.288Z,101233.22
2022-10-13T11:38:31.818Z,101223.41
2022-10-13T11:44:04.985Z,101213.09
2022-10-13T11:49:07.337Z,101215.34
2022-10-13T11:54:24.708Z,101214.59
2022-10-13T11:59:31.988Z,101189.00
2022-10-13T12:04:34.286Z,101188.94
2022-10-13T12:09:49.409Z,101191.91
2022-10-13T12:14:55.023Z,101179.13
2022-10-13T12:20:04.650Z,101176.97
2022-10-13T12:25:07.826Z,101176.19
2022-10-13T12:30:37.145Z,101172.03
2022-10-13T12:35:39.455Z,101157.38
2022-10-13T12:40:41.789Z,101151.38
2022-10-13T12:45:44.497Z,101142.59
2022-10-13T12:50:46.843Z,101152.81
2022-10-13T12:55:51.096Z,101144.19
2022-10-13T13:01:08.985Z,101153.38
2022-10-13T13:06:14.280Z,101145.13
2022-10-13T13:11:35.439Z,101130.81
2022-10-13T13:16:39.737Z,101132.13
2022-10-13T13:21:42.044Z,101131.63
2022-10-13T13:26:46.668Z,101131.84
2022-10-13T13:31:49.257Z,101127.22
2022-10-13T13:36:51.631Z,101134.47
2022-10-13T13:41:54.041Z,101128.13
2022-10-13T13:46:56.361Z,101109.38
2022-10-13T13:51:58.726Z,101122.13
2022-10-13T13:57:01.062Z,101119.81
2022-10-13T14:02:03.877Z,101112.97
2022-10-13T14:07:08.520Z,101108.22
2022-10-13T14:12:10.854Z,101108.44
2022-10-13T14:17:13.169Z,101098.28
2022-10-13T14:22:15.510Z,101105.31
2022-10-13T14:27:17.971Z,101101.75
2022-10-13T14:32:20.397Z,101100.81
2022-10-13T14:37:23.895Z,101110.59
2022-10-13T14:42:27.357Z,101108.03
2022-10-13T14:47:29.940Z,101099.75
2022-10-13T14:52:32.313Z,101093.59
2022-10-13T14:57:34.598Z,101072.78
2022-10-13T15:02:36.937Z,101089.94
2022-10-13T15:07:41.394Z,101087.72
2022-10-13T15:12:43.733Z,101088.31
2022-10-13T15:17:46.220Z,101074.84
2022-10-13T15:22:48.929Z,101062.72
2022-10-13T15:27:51.670Z,101056.84
2022-10-13T15:32:54.000Z,101057.31
2022-10-13T15:37:56.389Z,101056.25
2022-10-13T15:42:58.714Z,101063.16
2022-10-13T15:48:01.032Z,101061.44
2022-10-13T15:53:03.359Z,101062.78
2022-10-13T15:58:07.827Z,101058.09
2022-10-13T16:03:18.759Z,101058.22
2022-10-13T16:08:21.055Z,101044.44
2022-10-13T16:13:23.301Z,101051.97
2022-10-13T16:18:29.990Z,101037.34
2022-10-13T16:23:32.273Z,101054.44
2022-10-13T16:28:35.443Z,101043.66
2022-10-13T16:33:38.167Z,101038.00
2022-10-13T16:38:41.167Z,101041.13
2022-10-13T16:43:44.182Z,101060.09
2022-10-13T16:48:47.353Z,101050.38
2022-10-13T16:53:57.605Z,101054.78
2022-10-13T16:59:04.558Z,101049.25
2022-10-13T17:04:07.367Z,101044.25
2022-10-13T17:09:10.939Z,101031.81
2022-10-13T17:14:15.899Z,101043.69
2022-10-13T17:19:18.169Z,101046.13
2022-10-13T17:24:20.514Z,101035.13
2022-10-13T17:29:22.780Z,101043.88
2022-10-13T17:34:26.646Z,101040.25
2022-10-13T17:39:29.294Z,101036.81
2022-10-13T17:44:31.867Z,101026.81
2022-10-13T17:49:34.227Z,101009.69
2022-10-13T17:54:36.557Z,101018.94
2022-10-13T17:59:38.908Z,101012.50
2022-10-13T18:04:41.298Z,101019.88
2022-10-13T18:09:44.291Z,101017.84
2022-10-13T18:14:46.713Z,101026.66
2022-10-13T18:19:51.060Z,101025.81
2022-10-13T18:24:56.938Z,101025.69
2022-10-13T18:29:59.574Z,101023.78
2022-10-13T18:35:04.306Z,101002.25
2022-10-13T18:40:07.301Z,101015.09
2022-10-13T18:45:10.054Z,101001.53
2022-10-13T18:50:12.394Z,101001.00
2022-10-13T18:55:14.861Z,101000.41
2022-10-13T19:00:17.425Z,100997.16
2022-10-13T19:05:19.802Z,101002.59
2022-10-13T19:10:22.152Z,101003.94
2022-10-13T19:15:24.419Z,100997.63
2022-10-13T19:20:27.044Z,100989.41
2022-10-13T19:25:29.553Z,100996.97
2022-10-13T19:30:31.914Z,100990.59
2022-10-13T19:35:42.235Z,100983.69
2022-10-13T19:40:47.678Z,100987.44
2022-10-13T19:45:59.579Z,100986.63
2022-10-13T19:51:03.158Z,100972.06
2022-10-13T19:56:06.578Z,100983.44
2022-10-13T20:01:08.930Z,100979.56
2022-10-13T20:06:11.507Z,100964.56
2022-10-13T20:11:22.252Z,100973.47
2022-10-13T20:16:26.092Z,100970.75
2022-10-13T20:21:30.104Z,100970.81
2022-10-13T20:26:32.806Z,100959.72
2022-10-13T20:31:35.164Z,100955.09
2022-10-13T20:36:39.470Z,100954.69
2022-10-13T20:41:42.543Z,100960.34
2022-10-13T20:46:45.020Z,100949.50
2022-10-13T20:51:47.514Z,100957.78
2022-10-13T20:56:49.923Z,100957.88
2022-10-13T21:01:53.017Z,100961.22
2022-10-13T21:06:56.038Z,100951.88
2022-10-13T21:11:58.447Z,100948.56
2022-10-13T21:17:01.408Z,100946.72
2022-10-13T21:22:03.750Z,100937.41
2022-10-13T21:27:07.366Z,100941.44
2022-10-13T21:32:12.509Z,100937.63
2022-10-13T21:37:17.044Z,100938.22
2022-10-13T21:42:20.172Z,100940.63
2022-10-13T21:47:22.926Z,100929.34
2022-10-13T21:52:27.797Z,100932.88
2022-10-13T21:57:31.387Z,100929.94
2022-10-13T22:02:33.798Z,100920.81
2022-10-13T22:07:36.617Z,100920.16
2022-10-13T22:12:41.648Z,100909.53
2022-10-13T22:17:44.563Z,100917.75
2022-10-13T22:22:47.936Z,100917.34
2022-10-13T22:27:50.947Z,100909.34
2022-10-13T22:32:53.246Z,100900.69
2022-10-13T22:37:55.847Z,100913.59
2022-10-13T22:42:58.259Z,100906.75
2022-10-13T22:48:02.256Z,100906.75
2022-10-13T22:53:04.580Z,100916.31
2022-10-13T22:58:07.566Z,100915.41
2022-10-13T23:03:13.306Z,100910.22
2022-10-13T23:08:21.246Z,100906.22
2022-10-13T23:13:23.522Z,100897.59
2022-10-13T23:18:25.923Z,100901.75
2022-10-13T23:23:28.291Z,100891.25
2022-10-13T23:28:32.035Z,100888.75
2022-10-13T23:33:36.390Z,100889.72
2022-10-13T23:38:39.162Z,100884.16
2022-10-13T23:43:42.343Z,100869.56
2022-10-13T23:48:44.728Z,100865.31
2022-10-13T23:53:47.046Z,100860.03
2022-10-13T23:58:50.578Z,100861.28
